sensor_id;sensor_type;location;lat;lon;timestamp;P1;durP1;ratioP1;P2;durP2;ratioP2
6860;SDS011;3469;47.060;15.460;2023-03-03T00:01:05;28.40;;;18.17;;
6860;SDS011;3469;47.060;15.460;2023-03-03T00:03:35;23.30;;;16.83;;
6860;SDS011;3469;47.060;15.460;2023-03-03T00:06:04;26.00;;;18.60;;
6860;SDS011;3469;47.060;15.460;2023-03-03T00:08:32;25.70;;;17.70;;
6860;SDS011;3469;47.060;15.460;2023-03-03T00:11:01;26.67;;;17.03;;
6860;SDS011;3469;47.060;15.460;2023-03-03T00:13:32;31.23;;;17.87;;
6860;SDS011;3469;47.060;15.460;2023-03-03T00:16:20;20.70;;;16.23;;
6860;SDS011;3469;47.060;15.460;2023-03-03T00:18:52;22.07;;;17.57;;
6860;SDS011;3469;47.060;15.460;2023-03-03T00:21:22;25.23;;;18.17;;
6860;SDS011;3469;47.060;15.460;2023-03-03T00:24:10;23.70;;;17.20;;
6860;SDS011;3469;47.060;15.460;2023-03-03T00:26:45;22.67;;;16.40;;
6860;SDS011;3469;47.060;15.460;2023-03-03T00:29:30;26.13;;;17.20;;
6860;SDS011;3469;47.060;15.460;2023-03-03T00:32:20;28.57;;;20.00;;
6860;SDS011;3469;47.060;15.460;2023-03-03T00:34:52;27.53;;;16.50;;
6860;SDS011;3469;47.060;15.460;2023-03-03T00:37:26;25.17;;;18.60;;
6860;SDS011;3469;47.060;15.460;2023-03-03T00:39:58;27.23;;;19.40;;
6860;SDS011;3469;47.060;15.460;2023-03-03T00:42:39;25.20;;;17.80;;
6860;SDS011;3469;47.060;15.460;2023-03-03T00:45:15;23.57;;;18.03;;
6860;SDS011;3469;47.060;15.460;2023-03-03T00:47:51;27.47;;;18.43;;
6860;SDS011;3469;47.060;15.460;2023-03-03T00:50:29;25.80;;;17.13;;
6860;SDS011;3469;47.060;15.460;2023-03-03T00:53:02;24.83;;;17.63;;
6860;SDS011;3469;47.060;15.460;2023-03-03T00:55:35;22.03;;;15.90;;
6860;SDS011;3469;47.060;15.460;2023-03-03T00:58:03;25.10;;;17.80;;
6860;SDS011;3469;47.060;15.460;2023-03-03T01:00:37;25.47;;;16.47;;
6860;SDS011;3469;47.060;15.460;2023-03-03T01:03:09;31.93;;;20.53;;
6860;SDS011;3469;47.060;15.460;2023-03-03T01:05:42;27.17;;;18.40;;
6860;SDS011;3469;47.060;15.460;2023-03-03T01:08:10;29.03;;;18.07;;
6860;SDS011;3469;47.060;15.460;2023-03-03T01:10:40;25.63;;;17.90;;
6860;SDS011;3469;47.060;15.460;2023-03-03T01:13:09;26.93;;;18.60;;
6860;SDS011;3469;47.060;15.460;2023-03-03T01:15:38;30.37;;;18.80;;
6860;SDS011;3469;47.060;15.460;2023-03-03T01:18:07;28.50;;;18.70;;
6860;SDS011;3469;47.060;15.460;2023-03-03T01:20:36;25.83;;;17.67;;
6860;SDS011;3469;47.060;15.460;2023-03-03T01:23:06;28.17;;;18.83;;
6860;SDS011;3469;47.060;15.460;2023-03-03T01:25:35;25.70;;;19.20;;
6860;SDS011;3469;47.060;15.460;2023-03-03T01:28:04;24.50;;;18.53;;
6860;SDS011;3469;47.060;15.460;2023-03-03T01:30:32;23.83;;;18.97;;
6860;SDS011;3469;47.060;15.460;2023-03-03T01:33:00;30.57;;;20.13;;
6860;SDS011;3469;47.060;15.460;2023-03-03T01:35:29;29.43;;;20.60;;
6860;SDS011;3469;47.060;15.460;2023-03-03T01:37:57;25.63;;;18.47;;
6860;SDS011;3469;47.060;15.460;2023-03-03T01:40:29;24.70;;;18.50;;
6860;SDS011;3469;47.060;15.460;2023-03-03T01:42:58;27.40;;;20.40;;
6860;SDS011;3469;47.060;15.460;2023-03-03T01:45:27;25.60;;;19.80;;
6860;SDS011;3469;47.060;15.460;2023-03-03T01:48:00;30.20;;;20.27;;
6860;SDS011;3469;47.060;15.460;2023-03-03T01:50:32;31.10;;;20.57;;
6860;SDS011;3469;47.060;15.460;2023-03-03T01:53:04;30.07;;;21.00;;
6860;SDS011;3469;47.060;15.460;2023-03-03T01:55:38;26.63;;;19.67;;
6860;SDS011;3469;47.060;15.460;2023-03-03T01:58:09;34.70;;;22.60;;
6860;SDS011;3469;47.060;15.460;2023-03-03T02:00:39;30.20;;;20.53;;
6860;SDS011;3469;47.060;15.460;2023-03-03T02:03:09;26.10;;;19.20;;
6860;SDS011;3469;47.060;15.460;2023-03-03T02:05:38;27.43;;;20.33;;
6860;SDS011;3469;47.060;15.460;2023-03-03T02:08:07;33.47;;;22.87;;
6860;SDS011;3469;47.060;15.460;2023-03-03T02:10:38;29.87;;;21.40;;
6860;SDS011;3469;47.060;15.460;2023-03-03T02:13:07;30.73;;;22.47;;
6860;SDS011;3469;47.060;15.460;2023-03-03T02:15:35;26.73;;;21.03;;
6860;SDS011;3469;47.060;15.460;2023-03-03T02:18:05;30.10;;;20.40;;
6860;SDS011;3469;47.060;15.460;2023-03-03T02:20:37;30.10;;;20.83;;
6860;SDS011;3469;47.060;15.460;2023-03-03T02:23:15;29.37;;;22.10;;
6860;SDS011;3469;47.060;15.460;2023-03-03T02:25:49;31.33;;;20.50;;
6860;SDS011;3469;47.060;15.460;2023-03-03T02:28:30;28.57;;;20.90;;
6860;SDS011;3469;47.060;15.460;2023-03-03T02:31:04;26.47;;;19.97;;
6860;SDS011;3469;47.060;15.460;2023-03-03T02:33:37;27.93;;;20.63;;
6860;SDS011;3469;47.060;15.460;2023-03-03T02:36:06;35.40;;;23.20;;
6860;SDS011;3469;47.060;15.460;2023-03-03T02:38:37;32.60;;;22.57;;
6860;SDS011;3469;47.060;15.460;2023-03-03T02:41:10;27.97;;;21.97;;
6860;SDS011;3469;47.060;15.460;2023-03-03T02:43:45;28.03;;;20.43;;
6860;SDS011;3469;47.060;15.460;2023-03-03T02:46:17;33.13;;;22.00;;
6860;SDS011;3469;47.060;15.460;2023-03-03T02:48:47;30.50;;;22.30;;
6860;SDS011;3469;47.060;15.460;2023-03-03T02:51:15;32.90;;;22.60;;
6860;SDS011;3469;47.060;15.460;2023-03-03T02:53:44;32.13;;;23.40;;
6860;SDS011;3469;47.060;15.460;2023-03-03T02:56:14;32.03;;;21.53;;
6860;SDS011;3469;47.060;15.460;2023-03-03T02:58:42;32.27;;;22.73;;
6860;SDS011;3469;47.060;15.460;2023-03-03T03:01:11;29.43;;;21.97;;
6860;SDS011;3469;47.060;15.460;2023-03-03T03:03:40;30.90;;;22.10;;
6860;SDS011;3469;47.060;15.460;2023-03-03T03:06:09;29.30;;;21.30;;
6860;SDS011;3469;47.060;15.460;2023-03-03T03:08:38;27.33;;;21.33;;
6860;SDS011;3469;47.060;15.460;2023-03-03T03:11:06;37.93;;;23.93;;
6860;SDS011;3469;47.060;15.460;2023-03-03T03:13:38;30.50;;;22.53;;
6860;SDS011;3469;47.060;15.460;2023-03-03T03:16:07;33.57;;;22.10;;
6860;SDS011;3469;47.060;15.460;2023-03-03T03:18:35;31.77;;;21.77;;
6860;SDS011;3469;47.060;15.460;2023-03-03T03:21:05;29.87;;;22.00;;
6860;SDS011;3469;47.060;15.460;2023-03-03T03:23:35;28.43;;;20.73;;
6860;SDS011;3469;47.060;15.460;2023-03-03T03:26:04;27.63;;;21.27;;
6860;SDS011;3469;47.060;15.460;2023-03-03T03:28:33;25.70;;;20.00;;
6860;SDS011;3469;47.060;15.460;2023-03-03T03:31:04;32.90;;;21.30;;
6860;SDS011;3469;47.060;15.460;2023-03-03T03:33:34;29.60;;;20.90;;
6860;SDS011;3469;47.060;15.460;2023-03-03T03:36:03;31.33;;;20.90;;
6860;SDS011;3469;47.060;15.460;2023-03-03T03:38:33;31.50;;;22.10;;
6860;SDS011;3469;47.060;15.460;2023-03-03T03:41:04;30.27;;;22.90;;
6860;SDS011;3469;47.060;15.460;2023-03-03T03:43:34;28.50;;;21.20;;
6860;SDS011;3469;47.060;15.460;2023-03-03T03:46:05;31.57;;;21.13;;
6860;SDS011;3469;47.060;15.460;2023-03-03T03:48:34;32.50;;;23.40;;
6860;SDS011;3469;47.060;15.460;2023-03-03T03:51:04;27.10;;;21.70;;
6860;SDS011;3469;47.060;15.460;2023-03-03T03:53:33;36.50;;;22.70;;
6860;SDS011;3469;47.060;15.460;2023-03-03T03:56:02;30.77;;;22.07;;
6860;SDS011;3469;47.060;15.460;2023-03-03T03:58:31;34.73;;;23.93;;
6860;SDS011;3469;47.060;15.460;2023-03-03T04:01:05;35.20;;;23.03;;
6860;SDS011;3469;47.060;15.460;2023-03-03T04:03:40;36.90;;;22.53;;
6860;SDS011;3469;47.060;15.460;2023-03-03T04:06:12;32.43;;;21.80;;
6860;SDS011;3469;47.060;15.460;2023-03-03T04:08:41;31.87;;;21.63;;
6860;SDS011;3469;47.060;15.460;2023-03-03T04:11:09;29.80;;;20.90;;
6860;SDS011;3469;47.060;15.460;2023-03-03T04:13:38;29.27;;;20.47;;
6860;SDS011;3469;47.060;15.460;2023-03-03T04:16:09;31.07;;;22.83;;
6860;SDS011;3469;47.060;15.460;2023-03-03T04:18:40;34.37;;;23.10;;
6860;SDS011;3469;47.060;15.460;2023-03-03T04:21:14;30.60;;;22.00;;
6860;SDS011;3469;47.060;15.460;2023-03-03T04:23:44;31.50;;;21.90;;
6860;SDS011;3469;47.060;15.460;2023-03-03T04:26:13;29.13;;;22.20;;
6860;SDS011;3469;47.060;15.460;2023-03-03T04:28:43;36.80;;;21.87;;
6860;SDS011;3469;47.060;15.460;2023-03-03T04:31:12;31.83;;;22.30;;
6860;SDS011;3469;47.060;15.460;2023-03-03T04:33:41;34.30;;;23.30;;
6860;SDS011;3469;47.060;15.460;2023-03-03T04:36:10;29.60;;;21.63;;
6860;SDS011;3469;47.060;15.460;2023-03-03T04:38:39;34.57;;;23.17;;
6860;SDS011;3469;47.060;15.460;2023-03-03T04:41:08;43.73;;;26.90;;
6860;SDS011;3469;47.060;15.460;2023-03-03T04:43:37;38.10;;;24.57;;
6860;SDS011;3469;47.060;15.460;2023-03-03T04:46:08;34.53;;;23.30;;
6860;SDS011;3469;47.060;15.460;2023-03-03T04:48:39;29.83;;;21.63;;
6860;SDS011;3469;47.060;15.460;2023-03-03T04:51:09;31.30;;;21.77;;
6860;SDS011;3469;47.060;15.460;2023-03-03T04:53:37;30.77;;;21.97;;
6860;SDS011;3469;47.060;15.460;2023-03-03T04:56:07;29.50;;;20.03;;
6860;SDS011;3469;47.060;15.460;2023-03-03T04:58:36;30.53;;;20.33;;
6860;SDS011;3469;47.060;15.460;2023-03-03T05:01:05;30.67;;;20.80;;
6860;SDS011;3469;47.060;15.460;2023-03-03T05:03:33;29.43;;;21.87;;
6860;SDS011;3469;47.060;15.460;2023-03-03T05:06:03;38.70;;;22.27;;
6860;SDS011;3469;47.060;15.460;2023-03-03T05:08:32;32.17;;;21.97;;
6860;SDS011;3469;47.060;15.460;2023-03-03T05:11:00;29.67;;;21.53;;
6860;SDS011;3469;47.060;15.460;2023-03-03T05:13:29;37.60;;;24.43;;
6860;SDS011;3469;47.060;15.460;2023-03-03T05:15:57;34.00;;;23.00;;
6860;SDS011;3469;47.060;15.460;2023-03-03T05:18:26;32.87;;;23.10;;
6860;SDS011;3469;47.060;15.460;2023-03-03T05:20:54;29.80;;;21.40;;
6860;SDS011;3469;47.060;15.460;2023-03-03T05:23:24;33.87;;;23.83;;
6860;SDS011;3469;47.060;15.460;2023-03-03T05:25:52;29.70;;;21.67;;
6860;SDS011;3469;47.060;15.460;2023-03-03T05:28:21;41.43;;;22.63;;
6860;SDS011;3469;47.060;15.460;2023-03-03T05:30:49;32.80;;;20.90;;
6860;SDS011;3469;47.060;15.460;2023-03-03T05:33:18;29.93;;;22.13;;
6860;SDS011;3469;47.060;15.460;2023-03-03T05:35:46;31.30;;;22.87;;
6860;SDS011;3469;47.060;15.460;2023-03-03T05:38:15;29.30;;;22.20;;
6860;SDS011;3469;47.060;15.460;2023-03-03T05:40:44;32.93;;;22.57;;
6860;SDS011;3469;47.060;15.460;2023-03-03T05:43:13;34.10;;;23.73;;
6860;SDS011;3469;47.060;15.460;2023-03-03T05:45:42;36.70;;;23.57;;
6860;SDS011;3469;47.060;15.460;2023-03-03T05:48:10;33.90;;;23.97;;
6860;SDS011;3469;47.060;15.460;2023-03-03T05:50:38;32.37;;;23.97;;
6860;SDS011;3469;47.060;15.460;2023-03-03T05:53:07;33.17;;;24.47;;
6860;SDS011;3469;47.060;15.460;2023-03-03T05:55:35;37.63;;;25.27;;
6860;SDS011;3469;47.060;15.460;2023-03-03T05:58:04;34.03;;;24.30;;
6860;SDS011;3469;47.060;15.460;2023-03-03T06:00:33;34.60;;;24.90;;
6860;SDS011;3469;47.060;15.460;2023-03-03T06:03:01;35.00;;;24.40;;
6860;SDS011;3469;47.060;15.460;2023-03-03T06:05:30;35.83;;;24.03;;
6860;SDS011;3469;47.060;15.460;2023-03-03T06:07:58;40.27;;;25.50;;
6860;SDS011;3469;47.060;15.460;2023-03-03T06:10:27;41.10;;;25.03;;
6860;SDS011;3469;47.060;15.460;2023-03-03T06:12:58;33.77;;;24.13;;
6860;SDS011;3469;47.060;15.460;2023-03-03T06:15:28;34.43;;;23.40;;
6860;SDS011;3469;47.060;15.460;2023-03-03T06:17:56;38.13;;;24.17;;
6860;SDS011;3469;47.060;15.460;2023-03-03T06:20:25;38.87;;;24.40;;
6860;SDS011;3469;47.060;15.460;2023-03-03T06:22:53;37.93;;;25.73;;
6860;SDS011;3469;47.060;15.460;2023-03-03T06:25:22;35.13;;;26.43;;
6860;SDS011;3469;47.060;15.460;2023-03-03T06:27:51;38.07;;;26.10;;
6860;SDS011;3469;47.060;15.460;2023-03-03T06:30:19;40.07;;;25.57;;
6860;SDS011;3469;47.060;15.460;2023-03-03T06:32:50;38.73;;;26.27;;
6860;SDS011;3469;47.060;15.460;2023-03-03T06:35:18;32.23;;;23.70;;
6860;SDS011;3469;47.060;15.460;2023-03-03T06:37:47;37.97;;;24.07;;
6860;SDS011;3469;47.060;15.460;2023-03-03T06:40:16;31.60;;;22.33;;
6860;SDS011;3469;47.060;15.460;2023-03-03T06:42:45;32.27;;;22.50;;
6860;SDS011;3469;47.060;15.460;2023-03-03T06:45:13;33.30;;;24.13;;
6860;SDS011;3469;47.060;15.460;2023-03-03T06:47:42;30.47;;;21.53;;
6860;SDS011;3469;47.060;15.460;2023-03-03T06:50:11;38.83;;;24.87;;
6860;SDS011;3469;47.060;15.460;2023-03-03T06:52:40;35.83;;;24.27;;
6860;SDS011;3469;47.060;15.460;2023-03-03T06:55:12;33.53;;;24.27;;
6860;SDS011;3469;47.060;15.460;2023-03-03T06:57:44;32.30;;;22.83;;
6860;SDS011;3469;47.060;15.460;2023-03-03T07:00:14;34.87;;;27.07;;
6860;SDS011;3469;47.060;15.460;2023-03-03T07:02:46;34.43;;;24.80;;
6860;SDS011;3469;47.060;15.460;2023-03-03T07:05:16;41.20;;;24.03;;
6860;SDS011;3469;47.060;15.460;2023-03-03T07:07:45;30.90;;;25.00;;
6860;SDS011;3469;47.060;15.460;2023-03-03T07:10:17;30.80;;;23.10;;
6860;SDS011;3469;47.060;15.460;2023-03-03T07:12:49;36.43;;;24.60;;
6860;SDS011;3469;47.060;15.460;2023-03-03T07:15:19;29.63;;;22.83;;
6860;SDS011;3469;47.060;15.460;2023-03-03T07:17:49;35.23;;;24.77;;
6860;SDS011;3469;47.060;15.460;2023-03-03T07:20:22;32.93;;;23.03;;
6860;SDS011;3469;47.060;15.460;2023-03-03T07:22:51;33.47;;;23.70;;
6860;SDS011;3469;47.060;15.460;2023-03-03T07:25:20;30.73;;;22.27;;
6860;SDS011;3469;47.060;15.460;2023-03-03T07:27:54;32.73;;;22.10;;
6860;SDS011;3469;47.060;15.460;2023-03-03T07:30:26;34.03;;;25.37;;
6860;SDS011;3469;47.060;15.460;2023-03-03T07:32:56;29.63;;;21.43;;
6860;SDS011;3469;47.060;15.460;2023-03-03T07:35:33;29.43;;;22.80;;
6860;SDS011;3469;47.060;15.460;2023-03-03T07:38:16;32.70;;;23.90;;
6860;SDS011;3469;47.060;15.460;2023-03-03T07:40:48;34.47;;;23.60;;
6860;SDS011;3469;47.060;15.460;2023-03-03T07:46:14;33.80;;;21.40;;
6860;SDS011;3469;47.060;15.460;2023-03-03T07:48:49;28.93;;;22.80;;
6860;SDS011;3469;47.060;15.460;2023-03-03T07:51:20;27.63;;;20.93;;
6860;SDS011;3469;47.060;15.460;2023-03-03T07:53:51;25.23;;;19.70;;
6860;SDS011;3469;47.060;15.460;2023-03-03T07:56:24;28.43;;;20.47;;
6860;SDS011;3469;47.060;15.460;2023-03-03T07:58:56;28.93;;;20.27;;
6860;SDS011;3469;47.060;15.460;2023-03-03T08:01:31;27.37;;;19.40;;
6860;SDS011;3469;47.060;15.460;2023-03-03T08:04:10;26.27;;;19.83;;
6860;SDS011;3469;47.060;15.460;2023-03-03T08:06:45;26.10;;;20.43;;
6860;SDS011;3469;47.060;15.460;2023-03-03T08:12:16;27.80;;;19.93;;
6860;SDS011;3469;47.060;15.460;2023-03-03T08:14:48;25.20;;;20.20;;
6860;SDS011;3469;47.060;15.460;2023-03-03T08:17:19;24.87;;;18.40;;
6860;SDS011;3469;47.060;15.460;2023-03-03T08:23:08;28.53;;;20.60;;
6860;SDS011;3469;47.060;15.460;2023-03-03T08:25:36;26.63;;;19.00;;
6860;SDS011;3469;47.060;15.460;2023-03-03T08:28:06;21.90;;;18.37;;
6860;SDS011;3469;47.060;15.460;2023-03-03T08:30:34;25.83;;;19.47;;
6860;SDS011;3469;47.060;15.460;2023-03-03T08:33:03;25.13;;;19.97;;
6860;SDS011;3469;47.060;15.460;2023-03-03T08:35:31;23.40;;;18.80;;
6860;SDS011;3469;47.060;15.460;2023-03-03T08:37:59;25.80;;;20.00;;
6860;SDS011;3469;47.060;15.460;2023-03-03T08:40:29;23.07;;;17.47;;
6860;SDS011;3469;47.060;15.460;2023-03-03T08:42:57;24.63;;;19.30;;
6860;SDS011;3469;47.060;15.460;2023-03-03T08:45:26;22.27;;;17.10;;
6860;SDS011;3469;47.060;15.460;2023-03-03T08:47:55;26.10;;;20.07;;
6860;SDS011;3469;47.060;15.460;2023-03-03T08:50:26;30.07;;;19.10;;
6860;SDS011;3469;47.060;15.460;2023-03-03T08:52:55;22.53;;;17.40;;
6860;SDS011;3469;47.060;15.460;2023-03-03T08:55:23;21.33;;;17.10;;
6860;SDS011;3469;47.060;15.460;2023-03-03T08:57:53;22.23;;;17.10;;
6860;SDS011;3469;47.060;15.460;2023-03-03T09:00:22;23.87;;;19.50;;
6860;SDS011;3469;47.060;15.460;2023-03-03T09:02:51;23.47;;;17.80;;
6860;SDS011;3469;47.060;15.460;2023-03-03T09:05:20;25.93;;;19.20;;
6860;SDS011;3469;47.060;15.460;2023-03-03T09:07:49;23.90;;;18.80;;
6860;SDS011;3469;47.060;15.460;2023-03-03T09:10:19;22.10;;;17.53;;
6860;SDS011;3469;47.060;15.460;2023-03-03T09:12:56;26.43;;;19.70;;
6860;SDS011;3469;47.060;15.460;2023-03-03T09:15:27;29.23;;;19.30;;
6860;SDS011;3469;47.060;15.460;2023-03-03T09:17:57;21.17;;;17.07;;
6860;SDS011;3469;47.060;15.460;2023-03-03T09:20:29;23.53;;;17.50;;
6860;SDS011;3469;47.060;15.460;2023-03-03T09:23:16;23.07;;;16.97;;
6860;SDS011;3469;47.060;15.460;2023-03-03T09:25:52;20.37;;;15.90;;
6860;SDS011;3469;47.060;15.460;2023-03-03T09:28:23;21.77;;;14.73;;
6860;SDS011;3469;47.060;15.460;2023-03-03T09:30:53;23.33;;;16.47;;
6860;SDS011;3469;47.060;15.460;2023-03-03T09:33:26;22.17;;;15.90;;
6860;SDS011;3469;47.060;15.460;2023-03-03T09:35:57;20.93;;;16.60;;
6860;SDS011;3469;47.060;15.460;2023-03-03T09:38:31;20.20;;;16.73;;
6860;SDS011;3469;47.060;15.460;2023-03-03T09:43:59;22.47;;;15.23;;
6860;SDS011;3469;47.060;15.460;2023-03-03T09:47:03;20.37;;;15.37;;
6860;SDS011;3469;47.060;15.460;2023-03-03T09:49:40;25.93;;;15.33;;
6860;SDS011;3469;47.060;15.460;2023-03-03T09:52:25;17.33;;;13.93;;
6860;SDS011;3469;47.060;15.460;2023-03-03T09:55:10;19.03;;;15.00;;
6860;SDS011;3469;47.060;15.460;2023-03-03T09:57:55;18.30;;;14.57;;
6860;SDS011;3469;47.060;15.460;2023-03-03T10:00:43;26.17;;;14.90;;
6860;SDS011;3469;47.060;15.460;2023-03-03T10:03:47;18.07;;;13.60;;
6860;SDS011;3469;47.060;15.460;2023-03-03T10:06:30;19.30;;;13.20;;
6860;SDS011;3469;47.060;15.460;2023-03-03T10:09:09;16.33;;;13.90;;
6860;SDS011;3469;47.060;15.460;2023-03-03T10:11:56;13.03;;;10.40;;
6860;SDS011;3469;47.060;15.460;2023-03-03T10:14:40;17.90;;;12.97;;
6860;SDS011;3469;47.060;15.460;2023-03-03T10:17:31;15.47;;;11.60;;
6860;SDS011;3469;47.060;15.460;2023-03-03T10:20:16;15.50;;;11.53;;
6860;SDS011;3469;47.060;15.460;2023-03-03T10:23:18;15.37;;;10.50;;
6860;SDS011;3469;47.060;15.460;2023-03-03T10:25:52;17.83;;;12.00;;
6860;SDS011;3469;47.060;15.460;2023-03-03T10:31:27;13.97;;;11.30;;
6860;SDS011;3469;47.060;15.460;2023-03-03T10:34:05;14.60;;;11.70;;
6860;SDS011;3469;47.060;15.460;2023-03-03T10:36:45;13.97;;;10.70;;
6860;SDS011;3469;47.060;15.460;2023-03-03T10:39:29;19.20;;;10.60;;
6860;SDS011;3469;47.060;15.460;2023-03-03T10:45:11;16.67;;;11.80;;
6860;SDS011;3469;47.060;15.460;2023-03-03T10:48:07;14.43;;;12.17;;
6860;SDS011;3469;47.060;15.460;2023-03-03T10:50:48;13.70;;;10.77;;
6860;SDS011;3469;47.060;15.460;2023-03-03T10:53:20;14.30;;;10.87;;
6860;SDS011;3469;47.060;15.460;2023-03-03T10:55:53;21.23;;;12.30;;
6860;SDS011;3469;47.060;15.460;2023-03-03T10:58:39;18.93;;;12.47;;
6860;SDS011;3469;47.060;15.460;2023-03-03T11:01:16;16.50;;;10.50;;
6860;SDS011;3469;47.060;15.460;2023-03-03T11:03:54;13.93;;;11.00;;
6860;SDS011;3469;47.060;15.460;2023-03-03T11:06:47;17.93;;;11.13;;
6860;SDS011;3469;47.060;15.460;2023-03-03T11:12:14;15.20;;;11.77;;
6860;SDS011;3469;47.060;15.460;2023-03-03T11:14:50;17.03;;;12.33;;
6860;SDS011;3469;47.060;15.460;2023-03-03T11:17:29;22.93;;;13.60;;
6860;SDS011;3469;47.060;15.460;2023-03-03T11:20:09;15.97;;;12.27;;
6860;SDS011;3469;47.060;15.460;2023-03-03T11:22:49;14.70;;;12.10;;
6860;SDS011;3469;47.060;15.460;2023-03-03T11:25:24;15.43;;;11.50;;
6860;SDS011;3469;47.060;15.460;2023-03-03T11:27:58;12.43;;;11.13;;
6860;SDS011;3469;47.060;15.460;2023-03-03T11:30:44;20.20;;;11.20;;
6860;SDS011;3469;47.060;15.460;2023-03-03T11:33:19;15.60;;;10.30;;
6860;SDS011;3469;47.060;15.460;2023-03-03T11:35:50;12.63;;;10.43;;
6860;SDS011;3469;47.060;15.460;2023-03-03T11:38:27;15.63;;;10.40;;
6860;SDS011;3469;47.060;15.460;2023-03-03T11:41:02;17.93;;;9.87;;
6860;SDS011;3469;47.060;15.460;2023-03-03T11:43:36;14.30;;;11.13;;
6860;SDS011;3469;47.060;15.460;2023-03-03T11:46:06;14.70;;;10.93;;
6860;SDS011;3469;47.060;15.460;2023-03-03T11:48:41;13.30;;;11.00;;
6860;SDS011;3469;47.060;15.460;2023-03-03T11:51:13;17.57;;;12.20;;
6860;SDS011;3469;47.060;15.460;2023-03-03T11:53:52;14.83;;;10.70;;
6860;SDS011;3469;47.060;15.460;2023-03-03T11:56:26;15.50;;;11.57;;
6860;SDS011;3469;47.060;15.460;2023-03-03T11:59:01;14.20;;;10.73;;
6860;SDS011;3469;47.060;15.460;2023-03-03T12:01:38;13.90;;;10.80;;
6860;SDS011;3469;47.060;15.460;2023-03-03T12:04:09;16.03;;;11.40;;
6860;SDS011;3469;47.060;15.460;2023-03-03T12:06:44;16.17;;;11.00;;
6860;SDS011;3469;47.060;15.460;2023-03-03T12:12:11;15.23;;;10.60;;
6860;SDS011;3469;47.060;15.460;2023-03-03T12:14:48;14.63;;;11.50;;
6860;SDS011;3469;47.060;15.460;2023-03-03T12:17:30;14.83;;;10.97;;
6860;SDS011;3469;47.060;15.460;2023-03-03T12:20:17;17.40;;;12.10;;
6860;SDS011;3469;47.060;15.460;2023-03-03T12:22:51;15.07;;;11.30;;
6860;SDS011;3469;47.060;15.460;2023-03-03T12:25:35;12.73;;;10.93;;
6860;SDS011;3469;47.060;15.460;2023-03-03T12:28:07;12.93;;;10.67;;
6860;SDS011;3469;47.060;15.460;2023-03-03T12:30:41;16.17;;;12.03;;
6860;SDS011;3469;47.060;15.460;2023-03-03T12:33:19;14.83;;;11.37;;
6860;SDS011;3469;47.060;15.460;2023-03-03T12:35:53;18.57;;;12.50;;
6860;SDS011;3469;47.060;15.460;2023-03-03T12:38:30;14.57;;;12.30;;
6860;SDS011;3469;47.060;15.460;2023-03-03T12:41:07;13.90;;;12.07;;
6860;SDS011;3469;47.060;15.460;2023-03-03T12:43:45;16.10;;;12.70;;
6860;SDS011;3469;47.060;15.460;2023-03-03T12:46:19;18.83;;;11.93;;
6860;SDS011;3469;47.060;15.460;2023-03-03T12:48:54;14.13;;;11.87;;
6860;SDS011;3469;47.060;15.460;2023-03-03T12:51:32;15.33;;;11.20;;
6860;SDS011;3469;47.060;15.460;2023-03-03T12:54:11;14.60;;;11.80;;
6860;SDS011;3469;47.060;15.460;2023-03-03T12:56:46;14.73;;;11.93;;
6860;SDS011;3469;47.060;15.460;2023-03-03T12:59:17;12.67;;;10.57;;
6860;SDS011;3469;47.060;15.460;2023-03-03T13:01:52;13.13;;;11.77;;
6860;SDS011;3469;47.060;15.460;2023-03-03T13:04:28;15.57;;;10.77;;
6860;SDS011;3469;47.060;15.460;2023-03-03T13:07:03;15.77;;;11.23;;
6860;SDS011;3469;47.060;15.460;2023-03-03T13:09:36;13.13;;;10.97;;
6860;SDS011;3469;47.060;15.460;2023-03-03T13:12:29;18.93;;;13.23;;
6860;SDS011;3469;47.060;15.460;2023-03-03T13:15:01;16.30;;;11.80;;
6860;SDS011;3469;47.060;15.460;2023-03-03T13:17:33;19.53;;;12.10;;
6860;SDS011;3469;47.060;15.460;2023-03-03T13:20:07;13.33;;;10.70;;
6860;SDS011;3469;47.060;15.460;2023-03-03T13:22:43;17.20;;;10.87;;
6860;SDS011;3469;47.060;15.460;2023-03-03T13:25:28;13.40;;;9.87;;
6860;SDS011;3469;47.060;15.460;2023-03-03T13:28:04;13.60;;;10.27;;
6860;SDS011;3469;47.060;15.460;2023-03-03T13:30:36;13.33;;;9.70;;
6860;SDS011;3469;47.060;15.460;2023-03-03T13:33:07;16.87;;;12.00;;
6860;SDS011;3469;47.060;15.460;2023-03-03T13:35:39;14.10;;;10.87;;
6860;SDS011;3469;47.060;15.460;2023-03-03T13:38:11;16.03;;;11.40;;
6860;SDS011;3469;47.060;15.460;2023-03-03T13:40:42;14.17;;;11.40;;
6860;SDS011;3469;47.060;15.460;2023-03-03T13:43:14;15.60;;;11.10;;
6860;SDS011;3469;47.060;15.460;2023-03-03T13:45:50;12.17;;;9.60;;
6860;SDS011;3469;47.060;15.460;2023-03-03T13:48:28;13.23;;;9.80;;
6860;SDS011;3469;47.060;15.460;2023-03-03T13:51:03;11.13;;;9.80;;
6860;SDS011;3469;47.060;15.460;2023-03-03T13:53:38;15.27;;;10.47;;
6860;SDS011;3469;47.060;15.460;2023-03-03T13:56:16;12.27;;;10.23;;
6860;SDS011;3469;47.060;15.460;2023-03-03T13:59:00;15.57;;;10.40;;
6860;SDS011;3469;47.060;15.460;2023-03-03T14:01:36;13.83;;;10.90;;
6860;SDS011;3469;47.060;15.460;2023-03-03T14:04:28;12.17;;;10.93;;
6860;SDS011;3469;47.060;15.460;2023-03-03T14:07:00;14.23;;;11.47;;
6860;SDS011;3469;47.060;15.460;2023-03-03T14:09:39;17.07;;;11.23;;
6860;SDS011;3469;47.060;15.460;2023-03-03T14:12:25;12.00;;;10.43;;
6860;SDS011;3469;47.060;15.460;2023-03-03T14:15:00;16.67;;;11.40;;
6860;SDS011;3469;47.060;15.460;2023-03-03T14:17:31;14.47;;;11.50;;
6860;SDS011;3469;47.060;15.460;2023-03-03T14:20:05;16.87;;;12.43;;
6860;SDS011;3469;47.060;15.460;2023-03-03T14:22:42;16.50;;;12.40;;
6860;SDS011;3469;47.060;15.460;2023-03-03T14:25:14;16.47;;;12.00;;
6860;SDS011;3469;47.060;15.460;2023-03-03T14:27:53;13.20;;;11.00;;
6860;SDS011;3469;47.060;15.460;2023-03-03T14:30:29;15.43;;;12.50;;
6860;SDS011;3469;47.060;15.460;2023-03-03T14:33:01;15.20;;;11.80;;
6860;SDS011;3469;47.060;15.460;2023-03-03T14:35:42;14.53;;;11.97;;
6860;SDS011;3469;47.060;15.460;2023-03-03T14:38:12;14.40;;;11.80;;
6860;SDS011;3469;47.060;15.460;2023-03-03T14:40:43;20.80;;;13.00;;
6860;SDS011;3469;47.060;15.460;2023-03-03T14:43:21;14.27;;;10.80;;
6860;SDS011;3469;47.060;15.460;2023-03-03T14:45:51;17.50;;;11.30;;
6860;SDS011;3469;47.060;15.460;2023-03-03T14:48:21;13.87;;;10.30;;
6860;SDS011;3469;47.060;15.460;2023-03-03T14:50:51;12.43;;;10.13;;
6860;SDS011;3469;47.060;15.460;2023-03-03T14:53:21;18.33;;;11.37;;
6860;SDS011;3469;47.060;15.460;2023-03-03T14:56:13;14.57;;;10.63;;
6860;SDS011;3469;47.060;15.460;2023-03-03T14:58:43;14.73;;;10.50;;
6860;SDS011;3469;47.060;15.460;2023-03-03T15:01:15;14.50;;;11.10;;
6860;SDS011;3469;47.060;15.460;2023-03-03T15:03:49;12.77;;;10.27;;
6860;SDS011;3469;47.060;15.460;2023-03-03T15:06:29;16.80;;;12.03;;
6860;SDS011;3469;47.060;15.460;2023-03-03T15:09:20;14.40;;;11.03;;
6860;SDS011;3469;47.060;15.460;2023-03-03T15:12:02;16.40;;;12.10;;
6860;SDS011;3469;47.060;15.460;2023-03-03T15:14:46;14.90;;;11.73;;
6860;SDS011;3469;47.060;15.460;2023-03-03T15:17:25;19.27;;;13.07;;
6860;SDS011;3469;47.060;15.460;2023-03-03T15:22:53;16.63;;;12.20;;
6860;SDS011;3469;47.060;15.460;2023-03-03T15:25:27;15.63;;;12.23;;
6860;SDS011;3469;47.060;15.460;2023-03-03T15:28:13;19.53;;;11.30;;
6860;SDS011;3469;47.060;15.460;2023-03-03T15:30:56;15.83;;;12.47;;
6860;SDS011;3469;47.060;15.460;2023-03-03T15:37:23;16.33;;;11.43;;
6860;SDS011;3469;47.060;15.460;2023-03-03T15:40:13;14.10;;;11.30;;
6860;SDS011;3469;47.060;15.460;2023-03-03T15:42:48;17.20;;;11.27;;